Time;durP1;ratioP1;P1;durP2;ratioP2;P2;SDS_P1;SDS_P2;PMS_P1;PMS_P2;Temp;Humidity;BMP_temperature;BMP_pressure;BME280_temperature;BME280_humidity;BME280_pressure;Samples;Min_cycle;Max_cycle;Signal;HPM_P1;HPM_P2
2023/04/09 00:01:26;;;;;;;20.75;11.48;;;;;;;7.19;96.96;99744.25;5033512;28;20033;-89
2023/04/09 00:03:52;;;;;;;19.08;11.15;;;;;;;7.29;96.63;99771.06;5033181;28;20099;-88
2023/04/09 00:06:17;;;;;;;19.73;11.07;;;;;;;7.27;96.11;99770.53;5032436;28;20024;-88
2023/04/09 00:08:43;;;;;;;18.75;11.68;;;;;;;7.19;96.51;99762.88;5033547;28;20411;-89
2023/04/09 00:11:08;;;;;;;18.20;11.20;;;;;;;7.21;96.51;99769.81;5033717;28;20028;-87
2023/04/09 00:13:34;;;;;;;18.70;11.30;;;;;;;7.11;97.88;99769.97;5051517;28;20037;-89
2023/04/09 00:15:59;;;;;;;26.88;14.38;;;;;;;7.10;97.88;99776.69;5033617;28;20079;-88
2023/04/09 00:18:25;;;;;;;19.65;12.73;;;;;;;7.05;98.30;99772.03;5033184;28;20041;-89
2023/04/09 00:20:50;;;;;;;18.58;10.98;;;;;;;7.06;98.48;99778.41;5036093;28;20433;-89
2023/04/09 00:23:16;;;;;;;19.08;12.20;;;;;;;7.05;98.23;99782.31;5036269;28;20013;-88
2023/04/09 00:25:41;;;;;;;23.35;13.25;;;;;;;6.92;98.42;99773.59;5037193;28;20032;-90
2023/04/09 00:28:07;;;;;;;22.67;11.85;;;;;;;6.95;99.02;99780.53;5037016;28;20041;-89
2023/04/09 00:30:32;;;;;;;20.60;11.60;;;;;;;6.82;98.64;99784.91;5037836;28;20029;-88
2023/04/09 00:32:58;;;;;;;23.55;11.82;;;;;;;6.81;99.32;99772.97;5036424;28;20175;-89
2023/04/09 00:35:24;;;;;;;21.30;12.18;;;;;;;6.80;98.77;99788.00;5049382;28;20049;-88
2023/04/09 00:37:49;;;;;;;22.40;13.60;;;;;;;6.68;98.56;99757.84;5037195;28;20514;-88
2023/04/09 00:40:15;;;;;;;22.30;13.00;;;;;;;6.85;98.86;99784.31;5034058;28;20021;-88
2023/04/09 00:42:40;;;;;;;22.95;12.48;;;;;;;6.88;99.05;99795.66;5036668;28;20210;-88
2023/04/09 00:45:07;;;;;;;18.67;11.65;;;;;;;6.89;98.29;99796.47;5037048;28;20115;-89
2023/04/09 00:47:34;;;;;;;19.58;12.50;;;;;;;6.94;98.09;99796.41;5036959;28;20029;-88
2023/04/09 00:50:00;;;;;;;18.45;11.55;;;;;;;6.90;97.41;99797.31;5036784;28;20110;-87
2023/04/09 00:52:26;;;;;;;25.38;11.88;;;;;;;6.72;99.08;99791.44;5035817;28;20024;-88
2023/04/09 00:54:52;;;;;;;23.05;12.65;;;;;;;6.72;99.57;99797.00;5036919;28;20468;-88
2023/04/09 00:57:18;;;;;;;20.73;12.80;;;;;;;6.55;99.74;99784.47;5035981;28;20036;-89
2023/04/09 00:59:44;;;;;;;23.77;13.45;;;;;;;6.60;99.42;99783.56;5036726;28;20035;-89
2023/04/09 01:02:10;;;;;;;20.45;12.80;;;;;;;6.60;100.00;99798.28;5036319;28;20028;-90
2023/04/09 01:04:37;;;;;;;23.40;13.05;;;;;;;6.63;100.00;99801.59;5050260;28;20040;-89
2023/04/09 01:07:24;;;;;;;21.40;13.20;;;;;;;6.62;100.00;99802.72;5035264;28;20423;-89
2023/04/09 01:09:57;;;;;;;18.63;11.45;;;;;;;6.50;100.00;99784.53;5036636;28;20559;-88
2023/04/09 01:12:37;;;;;;;28.65;12.60;;;;;;;6.48;100.00;99786.78;5036449;28;20044;-89
2023/04/09 01:15:08;;;;;;;22.77;12.93;;;;;;;6.45;100.00;99790.97;5036571;28;20400;-89
2023/04/09 01:17:40;;;;;;;22.17;12.70;;;;;;;6.42;100.00;99797.16;5036485;28;20125;-89
2023/04/09 01:20:29;;;;;;;20.52;12.73;;;;;;;6.48;100.00;99797.09;5052749;28;20127;-90
2023/04/09 01:23:15;;;;;;;20.83;12.98;;;;;;;6.59;100.00;99804.97;5035449;28;20115;-90
2023/04/09 01:26:01;;;;;;;22.73;12.13;;;;;;;6.30;100.00;99792.03;5036479;28;20025;-88
2023/04/09 01:28:34;;;;;;;25.15;12.82;;;;;;;6.28;100.00;99797.06;5036509;28;20548;-91
2023/04/09 01:31:03;;;;;;;25.88;14.95;;;;;;;6.34;100.00;99799.78;5053823;28;20036;-88
2023/04/09 01:33:30;;;;;;;26.17;15.13;;;;;;;6.40;100.00;99796.63;5034866;28;20562;-89
2023/04/09 01:35:56;;;;;;;25.33;15.05;;;;;;;6.43;100.00;99815.47;5036064;28;20503;-91
2023/04/09 01:38:24;;;;;;;27.98;15.43;;;;;;;6.46;100.00;99795.44;5053053;28;20033;-90
2023/04/09 01:40:50;;;;;;;28.95;15.25;;;;;;;6.42;100.00;99810.22;5035702;28;20036;-88
2023/04/09 01:43:17;;;;;;;26.25;15.18;;;;;;;6.42;100.00;99808.25;5035005;28;20480;-89
2023/04/09 01:45:44;;;;;;;29.92;15.93;;;;;;;6.32;100.00;99788.94;5036167;28;20035;-88
2023/04/09 01:48:14;;;;;;;31.02;15.55;;;;;;;6.45;100.00;99809.63;5035058;28;20029;-88
2023/04/09 01:50:40;;;;;;;30.45;16.38;;;;;;;6.32;100.00;99800.91;5053338;28;20104;-88
2023/04/09 01:53:06;;;;;;;24.45;16.05;;;;;;;6.45;100.00;99806.84;5053276;28;20074;-90
2023/04/09 01:55:32;;;;;;;29.25;16.13;;;;;;;6.31;100.00;99807.59;5034744;28;20049;-89
2023/04/09 01:57:57;;;;;;;29.20;16.05;;;;;;;6.45;100.00;99813.22;5035735;28;20416;-89
2023/04/09 02:00:29;;;;;;;29.63;15.77;;;;;;;6.25;100.00;99814.31;5053228;28;20071;-90
2023/04/09 02:03:07;;;;;;;29.85;16.08;;;;;;;6.40;100.00;99812.50;5034771;28;20056;-88
2023/04/09 02:05:45;;;;;;;27.13;16.60;;;;;;;6.44;100.00;99802.41;5035549;28;20040;-88
2023/04/09 02:08:13;;;;;;;28.52;16.33;;;;;;;6.46;100.00;99822.38;5053232;28;20020;-88
2023/04/09 02:10:39;;;;;;;28.60;17.17;;;;;;;6.34;100.00;99808.09;5035655;28;20107;-89
2023/04/09 02:13:11;;;;;;;30.40;17.05;;;;;;;6.35;100.00;99815.31;5018450;28;20106;-88
2023/04/09 02:15:39;;;;;;;34.97;18.65;;;;;;;6.21;100.00;99804.94;5015734;28;20040;-88
2023/04/09 02:18:19;;;;;;;32.50;18.13;;;;;;;6.27;100.00;99820.41;5026468;28;20070;-90
2023/04/09 02:20:44;;;;;;;33.92;18.35;;;;;;;6.22;100.00;99814.91;5034840;28;20032;-88
2023/04/09 02:23:10;;;;;;;31.25;18.00;;;;;;;6.22;100.00;99806.59;5035114;28;20407;-89
2023/04/09 02:25:35;;;;;;;30.77;17.25;;;;;;;6.30;100.00;99817.03;5035106;28;20024;-88
2023/04/09 02:28:00;;;;;;;37.20;18.17;;;;;;;6.34;100.00;99820.06;5051627;28;20088;-88
2023/04/09 02:30:26;;;;;;;33.33;17.33;;;;;;;6.30;100.00;99824.53;5052891;28;20028;-87
2023/04/09 02:32:51;;;;;;;34.40;18.77;;;;;;;6.29;100.00;99809.00;5030909;28;20017;-87
2023/04/09 02:35:17;;;;;;;34.00;19.02;;;;;;;6.31;100.00;99812.31;5034685;28;20049;-88
2023/04/09 02:37:42;;;;;;;40.28;19.85;;;;;;;6.30;100.00;99800.38;5035218;28;20491;-88
2023/04/09 02:40:08;;;;;;;36.78;19.58;;;;;;;6.31;100.00;99813.13;5032522;28;20403;-87
2023/04/09 02:42:34;;;;;;;35.25;19.58;;;;;;;6.38;100.00;99811.94;5052029;28;20511;-88
2023/04/09 02:45:00;;;;;;;32.88;18.67;;;;;;;6.35;100.00;99804.19;5034763;28;20021;-88
2023/04/09 02:47:26;;;;;;;40.50;20.15;;;;;;;6.40;100.00;99806.94;5052736;28;20051;-88
2023/04/09 02:49:51;;;;;;;35.63;19.60;;;;;;;6.40;100.00;99813.28;5034597;28;20025;-87
2023/04/09 02:52:19;;;;;;;30.83;17.60;;;;;;;6.38;100.00;99804.44;5034521;28;20032;-89
2023/04/09 02:54:44;;;;;;;34.05;19.23;;;;;;;6.34;100.00;99813.66;5033888;28;20037;-89
2023/04/09 02:57:10;;;;;;;35.08;19.50;;;;;;;6.40;100.00;99815.25;5034726;28;20518;-89
2023/04/09 02:59:37;;;;;;;37.35;19.85;;;;;;;6.44;100.00;99821.88;5034918;28;20516;-90
2023/04/09 03:02:03;;;;;;;36.40;19.38;;;;;;;6.45;100.00;99809.63;5033816;28;20028;-89
2023/04/09 03:04:28;;;;;;;37.22;20.00;;;;;;;6.58;100.00;99814.44;5034941;28;20496;-88
2023/04/09 03:06:54;;;;;;;34.17;19.42;;;;;;;6.57;100.00;99823.91;5035437;28;20052;-88
2023/04/09 03:09:19;;;;;;;36.70;19.67;;;;;;;6.53;100.00;99811.75;5034445;28;20052;-89
2023/04/09 03:11:45;;;;;;;35.42;19.85;;;;;;;6.59;100.00;99812.50;5035523;28;20017;-87
2023/04/09 03:14:10;;;;;;;34.78;19.27;;;;;;;6.50;100.00;99814.28;5035258;28;20024;-88
2023/04/09 03:16:35;;;;;;;35.00;18.85;;;;;;;6.48;100.00;99819.31;5053349;28;20021;-89
2023/04/09 03:19:01;;;;;;;34.47;17.95;;;;;;;6.57;100.00;99811.94;5033789;28;20048;-88
2023/04/09 03:21:26;;;;;;;32.10;18.05;;;;;;;6.46;100.00;99797.38;5050980;28;20037;-90
2023/04/09 03:23:52;;;;;;;34.70;18.90;;;;;;;6.52;100.00;99820.38;5033743;28;20059;-89
2023/04/09 03:26:17;;;;;;;37.05;19.90;;;;;;;6.49;100.00;99815.41;5034543;28;20507;-88
2023/04/09 03:28:43;;;;;;;40.33;19.85;;;;;;;6.57;100.00;99826.69;5034514;28;20087;-88
2023/04/09 03:31:08;;;;;;;32.13;17.80;;;;;;;6.58;100.00;99831.13;5034393;28;20048;-87
2023/04/09 03:33:34;;;;;;;37.92;19.92;;;;;;;6.44;100.00;99808.78;5033960;28;20036;-89
2023/04/09 03:35:59;;;;;;;42.15;21.67;;;;;;;6.41;100.00;99809.38;5051173;28;20057;-87
2023/04/09 03:38:25;;;;;;;42.40;23.88;;;;;;;6.63;100.00;99832.16;5034121;28;20507;-88
2023/04/09 03:40:50;;;;;;;41.90;22.85;;;;;;;6.43;100.00;99809.09;5052001;28;20087;-88
2023/04/09 03:43:16;;;;;;;44.10;23.60;;;;;;;6.65;100.00;99838.28;5051569;28;20068;-88
2023/04/09 03:45:41;;;;;;;49.85;24.33;;;;;;;6.64;100.00;99839.41;5034124;28;20078;-90
2023/04/09 03:48:06;;;;;;;39.08;21.83;;;;;;;6.76;100.00;99830.59;5034025;28;20032;-89
2023/04/09 03:50:40;;;;;;;40.08;22.63;;;;;;;6.71;99.66;99837.06;5032889;28;20404;-89
2023/04/09 03:53:06;;;;;;;35.40;20.45;;;;;;;6.85;99.45;99845.47;5051020;28;20017;-88
2023/04/09 03:55:32;;;;;;;42.35;21.55;;;;;;;6.56;100.00;99838.94;5036250;28;20047;-88
2023/04/09 03:57:57;;;;;;;41.95;22.13;;;;;;;6.53;100.00;99835.91;5037511;28;20029;-89
2023/04/09 04:00:22;;;;;;;38.95;21.65;;;;;;;6.52;99.85;99826.78;5037527;28;20510;-89
2023/04/09 04:02:48;;;;;;;44.13;22.23;;;;;;;6.57;100.00;99860.03;5037814;28;20473;-88
2023/04/09 04:05:13;;;;;;;43.40;24.08;;;;;;;6.51;100.00;99838.97;5037581;28;20028;-89
2023/04/09 04:07:39;;;;;;;41.60;21.48;;;;;;;6.58;100.00;99858.09;5036169;28;20037;-90
2023/04/09 04:10:06;;;;;;;46.60;24.13;;;;;;;6.65;100.00;99852.16;5037415;28;20025;-89
2023/04/09 04:12:31;;;;;;;46.35;23.98;;;;;;;6.66;99.66;99860.19;5037512;28;20023;-90
2023/04/09 04:14:57;;;;;;;44.15;22.00;;;;;;;6.68;99.76;99855.16;5037414;28;20017;-88
2023/04/09 04:17:22;;;;;;;45.42;24.08;;;;;;;6.66;99.46;99849.06;5036850;28;20029;-88
2023/04/09 04:19:48;;;;;;;48.25;24.60;;;;;;;6.88;98.37;99851.28;5037242;28;20025;-88
2023/04/09 04:22:13;;;;;;;45.70;23.42;;;;;;;6.83;98.28;99859.69;5037064;28;20432;-87
2023/04/09 04:24:39;;;;;;;52.95;26.33;;;;;;;6.82;97.68;99852.47;5054129;28;20044;-88
2023/04/09 04:27:05;;;;;;;44.45;23.75;;;;;;;6.83;98.45;99864.44;5037437;28;20036;-89
2023/04/09 04:29:31;;;;;;;51.30;23.92;;;;;;;6.57;99.37;99850.84;5036958;28;20028;-89
2023/04/09 04:31:56;;;;;;;47.40;23.77;;;;;;;6.67;99.93;99863.81;5037242;28;20100;-89
2023/04/09 04:34:22;;;;;;;49.67;25.42;;;;;;;6.67;99.57;99861.03;5036712;28;20164;-87
2023/04/09 04:36:47;;;;;;;50.05;25.85;;;;;;;6.68;99.97;99871.03;5037037;28;20059;-88
2023/04/09 04:39:13;;;;;;;55.65;24.83;;;;;;;6.51;100.00;99852.88;5035680;28;20024;-89
2023/04/09 04:41:38;;;;;;;49.28;25.92;;;;;;;6.64;100.00;99856.06;5035306;28;20068;-88
2023/04/09 04:44:04;;;;;;;56.28;26.65;;;;;;;6.47;100.00;99835.16;5033356;28;20040;-88
2023/04/09 04:46:29;;;;;;;50.47;25.23;;;;;;;6.71;100.00;99853.72;5036623;28;20033;-88
2023/04/09 04:48:55;;;;;;;52.92;27.05;;;;;;;6.76;100.00;99869.53;5036676;28;20028;-88
2023/04/09 04:51:20;;;;;;;73.88;35.60;;;;;;;6.66;100.00;99837.94;5054428;28;20491;-88
2023/04/09 04:53:46;;;;;;;62.47;30.95;;;;;;;6.84;99.74;99869.66;5037265;28;20021;-88
2023/04/09 04:56:15;;;;;;;55.60;28.73;;;;;;;6.76;100.00;99864.81;5035738;28;20488;-88
2023/04/09 04:58:41;;;;;;;78.30;31.08;;;;;;;6.86;100.00;99870.19;5035897;28;20421;-88
2023/04/09 05:01:06;;;;;;;66.25;29.92;;;;;;;6.84;100.00;99866.88;5035985;28;20507;-89
2023/04/09 05:03:32;;;;;;;55.83;28.27;;;;;;;6.89;100.00;99874.34;5036595;28;20102;-88
2023/04/09 05:05:57;;;;;;;63.33;28.95;;;;;;;6.92;100.00;99878.47;5033183;28;20025;-89
2023/04/09 05:08:23;;;;;;;61.00;30.60;;;;;;;6.90;100.00;99872.41;5035593;28;20412;-88
2023/04/09 05:10:50;;;;;;;75.05;30.33;;;;;;;6.90;100.00;99872.41;5050751;28;20036;-88
2023/04/09 05:13:15;;;;;;;66.03;31.63;;;;;;;6.93;100.00;99869.00;5033719;28;20028;-87
2023/04/09 05:15:41;;;;;;;67.00;31.00;;;;;;;6.66;100.00;99845.47;5049438;28;20492;-88
2023/04/09 05:18:07;;;;;;;66.63;30.70;;;;;;;7.00;100.00;99881.41;5030274;28;20496;-88
2023/04/09 05:20:33;;;;;;;65.22;30.50;;;;;;;6.80;100.00;99853.88;5035722;28;20025;-88
2023/04/09 05:22:59;;;;;;;63.97;31.48;;;;;;;6.81;100.00;99878.63;5035942;28;20028;-89
2023/04/09 05:25:24;;;;;;;62.75;30.98;;;;;;;6.85;100.00;99871.31;5035017;28;20082;-88
2023/04/09 05:27:50;;;;;;;68.85;30.77;;;;;;;6.86;100.00;99870.19;5034027;28;20435;-88
2023/04/09 05:30:15;;;;;;;66.90;27.75;;;;;;;6.95;100.00;99880.66;5030723;28;20021;-87
2023/04/09 05:32:41;;;;;;;54.00;29.25;;;;;;;7.01;100.00;99876.69;5033261;28;20017;-87
2023/04/09 05:35:07;;;;;;;56.33;26.48;;;;;;;7.05;99.78;99888.00;5049039;28;20049;-88
2023/04/09 05:37:32;;;;;;;55.78;27.60;;;;;;;7.05;99.58;99885.22;5032656;28;20025;-88
2023/04/09 05:39:58;;;;;;;57.80;25.83;;;;;;;7.01;99.68;99885.03;5027384;28;20488;-89
2023/04/09 05:42:23;;;;;;;56.05;24.35;;;;;;;7.00;99.95;99880.59;5027242;28;20032;-87
2023/04/09 05:44:49;;;;;;;59.63;25.88;;;;;;;7.02;98.82;99878.31;5027184;28;20032;-88
2023/04/09 05:47:14;;;;;;;62.47;29.95;;;;;;;7.11;99.08;99887.63;5022196;28;20381;-88
2023/04/09 05:49:40;;;;;;;55.97;28.83;;;;;;;6.98;100.00;99897.56;5048686;28;20224;-88
2023/04/09 05:52:05;;;;;;;56.72;27.23;;;;;;;6.96;100.00;99873.97;5027127;28;20028;-88
2023/04/09 05:54:31;;;;;;;65.22;29.48;;;;;;;7.05;100.00;99883.28;5034242;28;20036;-87
2023/04/09 05:56:56;;;;;;;64.63;29.88;;;;;;;6.98;100.00;99889.22;5036105;28;20071;-87
2023/04/09 05:59:22;;;;;;;67.90;31.02;;;;;;;6.95;100.00;99886.22;5039091;28;20462;-87
2023/04/09 06:01:47;;;;;;;63.28;28.90;;;;;;;6.91;100.00;99887.94;5034830;28;20033;-88
2023/04/09 06:04:13;;;;;;;63.75;31.45;;;;;;;6.98;100.00;99896.72;5052541;28;20507;-89
2023/04/09 06:06:38;;;;;;;61.70;30.70;;;;;;;6.92;100.00;99895.97;5033838;28;20398;-87
2023/04/09 06:09:04;;;;;;;67.13;29.95;;;;;;;6.88;100.00;99873.53;5047737;28;20028;-88
2023/04/09 06:11:30;;;;;;;73.15;30.98;;;;;;;6.97;100.00;99900.63;5033170;28;20021;-89
2023/04/09 06:13:55;;;;;;;69.60;33.40;;;;;;;7.02;99.80;99906.97;5034018;28;20437;-88
2023/04/09 06:16:21;;;;;;;58.80;29.95;;;;;;;7.01;99.81;99919.22;5052124;28;20032;-89
2023/04/09 06:18:48;;;;;;;67.20;30.98;;;;;;;6.99;98.63;99904.78;5032024;28;20021;-88
2023/04/09 06:21:14;;;;;;;67.38;29.25;;;;;;;6.79;98.78;99886.44;5034190;28;20017;-89
2023/04/09 06:23:39;;;;;;;64.22;29.35;;;;;;;7.07;98.78;99903.28;5034269;28;20040;-88
2023/04/09 06:26:05;;;;;;;74.82;31.20;;;;;;;6.91;98.31;99880.41;5036036;28;20032;-88
2023/04/09 06:28:32;;;;;;;67.78;31.58;;;;;;;7.00;98.83;99897.28;5034515;28;20071;-88
2023/04/09 06:30:58;;;;;;;66.72;28.17;;;;;;;7.09;98.90;99903.78;5033321;28;20484;-88
2023/04/09 06:33:24;;;;;;;63.47;28.45;;;;;;;7.12;99.30;99910.72;5033500;28;20079;-88
2023/04/09 06:35:49;;;;;;;64.22;30.05;;;;;;;7.05;99.02;99896.34;5050600;28;20041;-88
2023/04/09 06:38:16;;;;;;;67.47;30.63;;;;;;;7.13;98.95;99912.38;5032555;28;20063;-89
2023/04/09 06:40:41;;;;;;;61.35;30.88;;;;;;;7.10;99.28;99915.75;5029174;28;20078;-88
2023/04/09 06:43:08;;;;;;;65.40;30.05;;;;;;;6.81;99.55;99861.94;5060055;28;20097;-87
2023/04/09 06:45:34;;;;;;;63.90;29.55;;;;;;;6.98;99.21;99888.38;5033433;28;20052;-89
2023/04/09 06:48:00;;;;;;;61.25;29.33;;;;;;;7.14;98.14;99906.53;5033227;28;20032;-87
2023/04/09 06:50:26;;;;;;;58.13;29.58;;;;;;;7.23;97.55;99903.03;5033617;28;20029;-87
2023/04/09 06:52:52;;;;;;;105.57;45.10;;;;;;;7.53;97.28;99917.59;5033570;28;20514;-87
2023/04/09 06:55:17;;;;;;;66.65;31.00;;;;;;;7.59;95.95;99920.00;5033605;28;20048;-89
2023/04/09 06:57:43;;;;;;;65.88;29.58;;;;;;;7.63;96.09;99916.59;5032912;28;20056;-87
2023/04/09 07:00:09;;;;;;;58.33;27.73;;;;;;;7.52;96.23;99913.97;5030638;28;20028;-87
2023/04/09 07:02:35;;;;;;;54.97;27.58;;;;;;;7.33;96.45;99900.09;5030441;28;20713;-87
2023/04/09 07:05:04;;;;;;;64.28;28.88;;;;;;;7.40;96.96;99883.00;5025877;28;20405;-89
2023/04/09 07:07:30;;;;;;;58.28;28.90;;;;;;;7.53;95.88;99909.25;5032964;28;20324;-86
2023/04/09 07:09:55;;;;;;;54.55;27.27;;;;;;;7.66;96.70;99918.75;5032994;28;20024;-87
2023/04/09 07:12:32;;;;;;;58.13;26.48;;;;;;;7.58;95.64;99912.78;5031492;28;20020;-87
2023/04/09 07:15:04;;;;;;;59.53;26.63;;;;;;;7.58;96.10;99914.72;5031268;28;20024;-87
2023/04/09 07:17:30;;;;;;;57.05;27.77;;;;;;;7.55;95.71;99918.13;5033630;28;20024;-88
2023/04/09 07:19:56;;;;;;;50.25;26.25;;;;;;;7.82;95.48;99922.13;5034259;28;20032;-89
2023/04/09 07:22:25;;;;;;;54.90;25.50;;;;;;;7.80;94.29;99918.81;5032954;28;20029;-89
2023/04/09 07:24:54;;;;;;;59.67;28.97;;;;;;;7.65;94.09;99898.47;5034357;28;20028;-91
2023/04/09 07:27:24;;;;;;;59.55;28.25;;;;;;;7.85;95.48;99922.34;5034240;28;20491;-87
2023/04/09 07:29:56;;;;;;;61.30;26.83;;;;;;;7.94;94.32;99930.81;5034246;28;20036;-89
2023/04/09 07:32:23;;;;;;;53.67;25.23;;;;;;;7.91;92.92;99923.06;5029645;28;20025;-88
2023/04/09 07:34:51;;;;;;;58.15;26.73;;;;;;;7.81;93.45;99900.97;5029580;28;20037;-89
2023/04/09 07:37:17;;;;;;;49.58;23.30;;;;;;;7.96;90.08;99913.81;5049349;28;20024;-89
2023/04/09 07:39:43;;;;;;;54.40;24.70;;;;;;;8.06;90.24;99926.72;5045766;28;20032;-87
2023/04/09 07:42:08;;;;;;;52.08;25.05;;;;;;;8.18;90.11;99943.75;5047859;28;20396;-88
2023/04/09 07:44:35;;;;;;;50.42;25.60;;;;;;;8.11;89.49;99938.59;5032373;28;20033;-88
2023/04/09 07:47:02;;;;;;;50.08;23.98;;;;;;;8.05;89.74;99927.84;5032758;28;20049;-88
2023/04/09 07:49:27;;;;;;;47.20;22.85;;;;;;;7.94;89.55;99916.88;5023138;28;20021;-88
2023/04/09 07:51:53;;;;;;;52.00;26.25;;;;;;;8.07;88.98;99928.34;5030265;28;20022;-88
2023/04/09 07:54:20;;;;;;;47.92;23.25;;;;;;;8.21;89.04;99929.22;5031649;28;20056;-87
2023/04/09 07:56:46;;;;;;;44.95;22.83;;;;;;;8.22;88.33;99935.63;5032306;28;20035;-89
2023/04/09 07:59:11;;;;;;;42.28;21.55;;;;;;;8.06;89.16;99915.56;5031800;28;20521;-87
2023/04/09 08:01:37;;;;;;;52.22;24.02;;;;;;;8.29;89.08;99936.84;5033234;28;20029;-87
2023/04/09 08:04:02;;;;;;;49.10;22.67;;;;;;;8.17;89.30;99919.00;5031749;28;20060;-87
2023/04/09 08:06:28;;;;;;;59.88;24.15;;;;;;;8.46;88.95;99938.22;5031624;28;20040;-86
2023/04/09 08:08:53;;;;;;;57.65;24.40;;;;;;;8.26;88.26;99909.59;5025492;28;20037;-85
2023/04/09 08:11:24;;;;;;;55.53;26.88;;;;;;;8.55;88.47;99932.78;5032864;28;20526;-88
2023/04/09 08:13:53;;;;;;;60.35;27.17;;;;;;;8.52;88.61;99931.44;5028615;28;20097;-87
2023/04/09 08:16:20;;;;;;;58.93;29.33;;;;;;;8.75;88.27;99944.63;5032748;28;20407;-87
2023/04/09 08:18:46;;;;;;;61.20;29.67;;;;;;;8.82;87.71;99934.72;5032020;28;20517;-86
2023/04/09 08:21:12;;;;;;;64.53;28.48;;;;;;;8.85;87.46;99938.84;5029770;28;20139;-87
2023/04/09 08:23:37;;;;;;;53.90;27.40;;;;;;;8.87;87.50;99927.38;5027031;28;20175;-87
2023/04/09 08:26:03;;;;;;;59.58;28.60;;;;;;;9.05;86.19;99920.00;5040145;28;20025;-87
2023/04/09 08:28:28;;;;;;;53.22;25.90;;;;;;;9.06;85.64;99935.59;5029500;28;20059;-87
2023/04/09 08:30:54;;;;;;;60.10;28.27;;;;;;;9.17;85.81;99927.81;5030316;28;20406;-86
2023/04/09 08:33:20;;;;;;;57.50;27.95;;;;;;;9.26;85.88;99934.31;5029409;28;20029;-87
2023/04/09 08:35:45;;;;;;;55.75;25.73;;;;;;;9.01;85.16;99910.63;5028160;28;20049;-85
2023/04/09 08:38:12;;;;;;;137.10;74.70;;;;;;;9.21;86.67;99931.66;5030038;28;20060;-86
2023/04/09 08:40:38;;;;;;;105.75;50.63;;;;;;;9.40;86.18;99939.84;5026408;28;20037;-86
2023/04/09 08:43:07;;;;;;;167.02;90.30;;;;;;;9.26;86.99;99935.16;5031027;28;20039;-88
2023/04/09 08:45:33;;;;;;;130.68;66.32;;;;;;;9.26;85.91;99907.22;5047495;28;20123;-88
2023/04/09 08:48:02;;;;;;;101.45;50.35;;;;;;;9.30;85.41;99906.59;5064241;28;20045;-89
2023/04/09 08:50:30;;;;;;;111.82;59.63;;;;;;;9.40;85.09;99915.53;5052912;28;20036;-87
2023/04/09 08:52:58;;;;;;;86.75;40.85;;;;;;;9.72;84.03;99934.34;5014293;28;20033;-86
2023/04/09 08:55:23;;;;;;;85.25;44.55;;;;;;;9.82;83.60;99931.28;5034136;28;20032;-88
2023/04/09 08:57:49;;;;;;;136.18;79.63;;;;;;;9.88;84.03;99932.00;5032447;28;20033;-90
2023/04/09 09:00:14;;;;;;;367.88;241.23;;;;;;;9.72;83.37;99898.88;5033118;28;20102;-88
2023/04/09 09:03:09;;;;;;;530.22;341.48;;;;;;;9.80;84.12;99923.22;5029929;28;20043;-91
2023/04/09 09:05:52;;;;;;;113.88;57.72;;;;;;;9.65;85.30;99921.66;5036526;28;20511;-87
2023/04/09 09:08:25;;;;;;;870.65;595.03;;;;;;;9.58;85.96;99923.22;5050573;28;20021;-89
2023/04/09 09:10:51;;;;;;;157.15;85.68;;;;;;;9.51;86.20;99921.72;5033218;28;20405;-87
2023/04/09 09:13:24;;;;;;;106.10;52.30;;;;;;;9.76;85.83;99924.16;5051661;28;20032;-84
2023/04/09 09:15:54;;;;;;;189.50;109.43;;;;;;;9.59;85.36;99908.94;5035367;28;20043;-87
2023/04/09 09:18:21;;;;;;;117.17;57.00;;;;;;;9.65;87.07;99921.66;5046990;28;20120;-89
2023/04/09 09:20:47;;;;;;;198.73;117.57;;;;;;;9.85;86.37;99916.69;5034228;28;20021;-88
2023/04/09 09:23:15;;;;;;;163.23;85.57;;;;;;;9.76;85.46;99890.66;5027663;28;20402;-88
2023/04/09 09:25:42;;;;;;;218.57;118.00;;;;;;;9.76;84.94;99873.88;5029125;28;20025;-89
2023/04/09 09:28:14;;;;;;;190.32;101.85;;;;;;;9.95;85.25;99894.06;5036996;28;20052;-89
2023/04/09 09:30:39;;;;;;;188.77;101.57;;;;;;;9.83;84.47;99899.41;5036947;28;20038;-88
2023/04/09 09:33:07;;;;;;;123.95;62.85;;;;;;;9.80;85.44;99877.72;5018224;28;20029;-88
2023/04/09 09:35:50;;;;;;;119.75;50.15;;;;;;;10.19;85.57;99903.19;5033509;28;20087;-84
2023/04/09 09:38:17;;;;;;;147.07;70.07;;;;;;;10.18;84.28;99898.75;5034417;28;20098;-84
2023/04/09 09:40:42;;;;;;;225.82;111.03;;;;;;;10.47;83.40;99897.44;5030720;28;20128;-84
2023/04/09 09:43:08;;;;;;;184.48;92.93;;;;;;;10.57;82.68;99896.31;5033795;28;20111;-84
2023/04/09 09:45:35;;;;;;;177.23;95.53;;;;;;;10.90;82.89;99902.31;5034312;28;20037;-84
2023/04/09 09:48:02;;;;;;;98.88;50.30;;;;;;;11.27;80.37;99895.59;5034132;28;20024;-83
2023/04/09 09:50:30;;;;;;;93.40;45.13;;;;;;;11.65;79.95;99892.94;5032483;28;20456;-85
2023/04/09 09:53:04;;;;;;;81.22;40.88;;;;;;;11.83;79.37;99887.31;5033893;28;20056;-83
2023/04/09 09:55:31;;;;;;;70.80;36.70;;;;;;;11.82;75.86;99880.03;5031673;28;20294;-85
2023/04/09 09:58:02;;;;;;;82.07;39.92;;;;;;;12.11;75.56;99884.09;5017122;28;20483;-85
2023/04/09 10:00:31;;;;;;;72.30;38.65;;;;;;;12.18;73.43;99866.75;5030443;28;20492;-85
2023/04/09 10:03:13;;;;;;;81.20;42.10;;;;;;;12.25;75.26;99883.91;5029429;28;20495;-87
2023/04/09 10:05:40;;;;;;;81.60;47.67;;;;;;;12.39;73.35;99872.44;5024704;28;20471;-86
2023/04/09 10:08:06;;;;;;;69.47;37.80;;;;;;;12.45;71.18;99873.91;5032717;28;20511;-87
2023/04/09 10:10:32;;;;;;;80.18;46.22;;;;;;;12.94;70.69;99872.63;5035145;28;20035;-87
2023/04/09 10:12:58;;;;;;;57.80;30.42;;;;;;;13.08;69.47;99869.50;5032356;28;20555;-87
2023/04/09 10:15:27;;;;;;;45.38;25.13;;;;;;;12.78;65.41;99856.34;5034702;28;20175;-86
2023/04/09 10:17:53;;;;;;;52.75;29.48;;;;;;;12.76;67.30;99858.69;5034159;28;20025;-86
2023/04/09 10:20:27;;;;;;;45.35;23.65;;;;;;;12.57;67.93;99849.91;5033423;28;20108;-86
2023/04/09 10:22:54;;;;;;;78.40;43.55;;;;;;;12.59;67.63;99845.56;5045768;28;20117;-85
2023/04/09 10:25:19;;;;;;;49.33;26.35;;;;;;;12.68;70.21;99851.16;5023717;28;20046;-86
2023/04/09 10:27:47;;;;;;;56.33;31.00;;;;;;;13.10;67.99;99844.75;5031030;28;20484;-87
2023/04/09 10:30:32;;;;;;;49.40;27.77;;;;;;;13.46;65.50;99845.28;5033970;28;20025;-85
2023/04/09 10:33:15;;;;;;;41.80;24.70;;;;;;;13.38;66.08;99832.09;5031642;28;20032;-86
2023/04/09 10:35:42;;;;;;;41.20;23.77;;;;;;;13.39;64.38;99833.72;5026904;28;20095;-85
2023/04/09 10:38:09;;;;;;;129.60;72.05;;;;;;;13.74;63.97;99839.03;5031658;28;20522;-86
2023/04/09 10:40:46;;;;;;;47.65;27.15;;;;;;;14.02;64.06;99825.13;5033785;28;20033;-86
2023/04/09 10:43:13;;;;;;;69.28;38.88;;;;;;;13.79;61.87;99819.13;5029454;28;20063;-85
2023/04/09 10:45:40;;;;;;;53.67;36.05;;;;;;;13.96;62.17;99823.75;5041778;28;20028;-85
2023/04/09 10:48:11;;;;;;;46.88;29.17;;;;;;;13.92;61.42;99796.66;5047396;28;20414;-86
2023/04/09 10:50:37;;;;;;;38.83;23.90;;;;;;;14.13;61.46;99805.00;5024077;28;20025;-85
2023/04/09 10:53:03;;;;;;;39.83;24.23;;;;;;;14.52;61.82;99797.00;5032799;28;20108;-85
2023/04/09 10:55:48;;;;;;;40.35;23.02;;;;;;;14.98;58.48;99810.91;5043688;28;20476;-85
2023/04/09 10:58:13;;;;;;;39.80;22.65;;;;;;;14.63;59.71;99799.31;5027298;28;20078;-86
2023/04/09 11:00:41;;;;;;;46.55;26.27;;;;;;;14.36;60.33;99791.28;5028402;28;20529;-87
2023/04/09 11:03:20;;;;;;;40.63;24.17;;;;;;;14.70;59.48;99791.91;5025552;28;20025;-86
2023/04/09 11:06:18;;;;;;;27.20;17.87;;;;;;;14.53;57.94;99787.38;5030479;28;20029;-87
2023/04/09 11:08:44;;;;;;;32.92;19.02;;;;;;;14.11;60.60;99776.41;5014323;28;20123;-87
2023/04/09 11:11:10;;;;;;;33.28;20.33;;;;;;;14.16;61.57;99777.00;5019987;28;20519;-86
2023/04/09 11:13:36;;;;;;;29.00;18.42;;;;;;;13.87;59.93;99776.03;5023663;28;20056;-85
2023/04/09 11:16:05;;;;;;;27.42;18.38;;;;;;;14.07;58.98;99764.22;5033024;28;20503;-85
2023/04/09 11:18:33;;;;;;;31.97;19.67;;;;;;;13.46;59.91;99760.97;5048185;28;20029;-85
2023/04/09 11:21:02;;;;;;;28.45;18.02;;;;;;;13.47;60.12;99765.44;5031885;28;20040;-86